Terminal Aerodrome Forecast
Issued by NWS Central Illinois

Home | Current Version | Previous Version | Text Only | Print | Product List | Glossary On
Versions: 1 2 3 4 5 6 7 8 9 10 11 12 13 14 15
000
FTUS43 KILX 242340
TAFSPI
TAF
KSPI 242340Z 2500/2524 17015G25KT P6SM VCTS SCT040CB BKN060
      TEMPO 2500/2501 4SM TSRA BKN030CB
     FM250400 16015G22KT 5SM -SHRA VCTS BKN025CB
     FM251500 23014G22KT P6SM SCT035 BKN250
     FM251800 20015KT P6SM SCT040=

USA.gov is the U.S. government's official web portal to all federal, state and local government web resources and services.